sensor_id;sensor_type;location;lat;lon;timestamp;pressure;altitude;pressure_sealevel;temperature;humidity
72409;BME280;60402;48.082;11.628;2023-05-08T00:00:23;95555.38;;;14.18;100.00
72409;BME280;60402;48.082;11.628;2023-05-08T00:03:08;95560.94;;;14.22;100.00
72409;BME280;60402;48.082;11.628;2023-05-08T00:05:54;95554.59;;;14.18;100.00
72409;BME280;60402;48.082;11.628;2023-05-08T00:08:40;95555.09;;;14.25;100.00
72409;BME280;60402;48.082;11.628;2023-05-08T00:11:26;95564.72;;;14.50;100.00
72409;BME280;60402;48.082;11.628;2023-05-08T00:14:12;95556.63;;;14.48;100.00
72409;BME280;60402;48.082;11.628;2023-05-08T00:16:57;95568.66;;;14.52;99.98
72409;BME280;60402;48.082;11.628;2023-05-08T00:19:43;95575.78;;;14.57;99.83
72409;BME280;60402;48.082;11.628;2023-05-08T00:22:28;95578.03;;;14.31;100.00
72409;BME280;60402;48.082;11.628;2023-05-08T00:25:14;95562.56;;;14.01;100.00
72409;BME280;60402;48.082;11.628;2023-05-08T00:28:00;95574.41;;;13.99;100.00
72409;BME280;60402;48.082;11.628;2023-05-08T00:30:46;95568.41;;;13.97;100.00
72409;BME280;60402;48.082;11.628;2023-05-08T00:33:31;95585.47;;;14.06;100.00
72409;BME280;60402;48.082;11.628;2023-05-08T00:36:17;95585.19;;;14.14;100.00
72409;BME280;60402;48.082;11.628;2023-05-08T00:39:02;95578.56;;;13.86;100.00
72409;BME280;60402;48.082;11.628;2023-05-08T00:41:48;95590.03;;;14.04;100.00
72409;BME280;60402;48.082;11.628;2023-05-08T00:44:34;95567.53;;;13.88;100.00
72409;BME280;60402;48.082;11.628;2023-05-08T00:47:20;95590.47;;;13.93;100.00
72409;BME280;60402;48.082;11.628;2023-05-08T00:50:07;95573.19;;;13.78;100.00
72409;BME280;60402;48.082;11.628;2023-05-08T00:52:54;95567.94;;;13.77;100.00
72409;BME280;60402;48.082;11.628;2023-05-08T00:55:41;95571.25;;;13.75;100.00
72409;BME280;60402;48.082;11.628;2023-05-08T00:58:27;95586.91;;;13.80;100.00
72409;BME280;60402;48.082;11.628;2023-05-08T01:01:13;95572.16;;;13.72;100.00
72409;BME280;60402;48.082;11.628;2023-05-08T01:04:00;95572.28;;;13.69;100.00
72409;BME280;60402;48.082;11.628;2023-05-08T01:06:46;95581.09;;;13.62;100.00
72409;BME280;60402;48.082;11.628;2023-05-08T01:09:32;95561.34;;;13.58;100.00
72409;BME280;60402;48.082;11.628;2023-05-08T01:15:33;95587.84;;;13.55;100.00
72409;BME280;60402;48.082;11.628;2023-05-08T01:18:27;95572.44;;;13.43;100.00
72409;BME280;60402;48.082;11.628;2023-05-08T01:21:27;95552.88;;;13.23;100.00
72409;BME280;60402;48.082;11.628;2023-05-08T01:33:46;95584.44;;;13.25;100.00
72409;BME280;60402;48.082;11.628;2023-05-08T01:36:40;95598.69;;;13.35;100.00
72409;BME280;60402;48.082;11.628;2023-05-08T01:39:38;95602.91;;;13.30;100.00
72409;BME280;60402;48.082;11.628;2023-05-08T01:45:21;95590.59;;;13.46;100.00
72409;BME280;60402;48.082;11.628;2023-05-08T01:48:10;95609.50;;;13.62;100.00
72409;BME280;60402;48.082;11.628;2023-05-08T01:51:03;95610.09;;;13.78;100.00
72409;BME280;60402;48.082;11.628;2023-05-08T01:53:55;95612.88;;;13.69;100.00
72409;BME280;60402;48.082;11.628;2023-05-08T01:56:43;95612.66;;;13.42;100.00
72409;BME280;60402;48.082;11.628;2023-05-08T01:59:32;95609.25;;;13.34;100.00
72409;BME280;60402;48.082;11.628;2023-05-08T02:02:19;95618.31;;;13.42;100.00
72409;BME280;60402;48.082;11.628;2023-05-08T02:05:06;95616.00;;;13.27;100.00
72409;BME280;60402;48.082;11.628;2023-05-08T02:07:53;95613.38;;;13.55;100.00
72409;BME280;60402;48.082;11.628;2023-05-08T02:10:40;95617.66;;;13.60;100.00
72409;BME280;60402;48.082;11.628;2023-05-08T02:13:28;95598.31;;;13.45;100.00
72409;BME280;60402;48.082;11.628;2023-05-08T02:16:15;95596.72;;;13.22;100.00
72409;BME280;60402;48.082;11.628;2023-05-08T02:19:02;95604.31;;;13.13;100.00
72409;BME280;60402;48.082;11.628;2023-05-08T02:21:49;95616.78;;;13.15;100.00
72409;BME280;60402;48.082;11.628;2023-05-08T02:24:37;95620.28;;;13.19;100.00
72409;BME280;60402;48.082;11.628;2023-05-08T02:27:26;95612.75;;;13.03;100.00
72409;BME280;60402;48.082;11.628;2023-05-08T02:30:13;95627.09;;;13.22;100.00
72409;BME280;60402;48.082;11.628;2023-05-08T02:32:59;95627.34;;;13.15;100.00
72409;BME280;60402;48.082;11.628;2023-05-08T02:35:47;95602.53;;;12.93;100.00
72409;BME280;60402;48.082;11.628;2023-05-08T02:38:36;95615.44;;;13.07;100.00
72409;BME280;60402;48.082;11.628;2023-05-08T02:41:23;95616.88;;;12.77;100.00
72409;BME280;60402;48.082;11.628;2023-05-08T02:44:10;95632.81;;;12.96;100.00
72409;BME280;60402;48.082;11.628;2023-05-08T02:47:21;95632.03;;;12.96;100.00
72409;BME280;60402;48.082;11.628;2023-05-08T02:50:18;95628.94;;;13.03;100.00
72409;BME280;60402;48.082;11.628;2023-05-08T02:53:11;95623.44;;;12.74;100.00
72409;BME280;60402;48.082;11.628;2023-05-08T02:56:12;95633.31;;;12.69;100.00
72409;BME280;60402;48.082;11.628;2023-05-08T02:59:12;95636.94;;;12.70;100.00
72409;BME280;60402;48.082;11.628;2023-05-08T03:02:12;95639.09;;;12.53;100.00
72409;BME280;60402;48.082;11.628;2023-05-08T03:05:04;95641.59;;;12.51;100.00
72409;BME280;60402;48.082;11.628;2023-05-08T03:07:53;95634.66;;;12.65;100.00
72409;BME280;60402;48.082;11.628;2023-05-08T03:10:42;95619.47;;;12.46;100.00
72409;BME280;60402;48.082;11.628;2023-05-08T03:13:30;95633.66;;;12.46;100.00
72409;BME280;60402;48.082;11.628;2023-05-08T03:16:19;95636.28;;;12.40;100.00
72409;BME280;60402;48.082;11.628;2023-05-08T03:19:15;95642.06;;;12.62;100.00
72409;BME280;60402;48.082;11.628;2023-05-08T03:22:04;95634.69;;;12.52;100.00
72409;BME280;60402;48.082;11.628;2023-05-08T03:24:52;95630.94;;;12.55;100.00
72409;BME280;60402;48.082;11.628;2023-05-08T03:27:39;95629.81;;;12.40;100.00
72409;BME280;60402;48.082;11.628;2023-05-08T03:30:26;95646.03;;;12.39;100.00
72409;BME280;60402;48.082;11.628;2023-05-08T03:33:12;95631.28;;;12.32;100.00
72409;BME280;60402;48.082;11.628;2023-05-08T03:35:58;95627.88;;;12.24;100.00
72409;BME280;60402;48.082;11.628;2023-05-08T03:38:44;95638.75;;;12.25;100.00
72409;BME280;60402;48.082;11.628;2023-05-08T03:41:30;95615.94;;;12.03;100.00
72409;BME280;60402;48.082;11.628;2023-05-08T03:44:16;95628.31;;;12.22;100.00
72409;BME280;60402;48.082;11.628;2023-05-08T03:47:03;95620.03;;;12.02;100.00
72409;BME280;60402;48.082;11.628;2023-05-08T03:49:49;95636.81;;;12.22;100.00
72409;BME280;60402;48.082;11.628;2023-05-08T03:52:35;95635.47;;;12.27;100.00
72409;BME280;60402;48.082;11.628;2023-05-08T03:55:20;95633.53;;;12.11;100.00
72409;BME280;60402;48.082;11.628;2023-05-08T04:01:10;95659.84;;;12.24;100.00
72409;BME280;60402;48.082;11.628;2023-05-08T04:09:42;95655.16;;;12.18;100.00
72409;BME280;60402;48.082;11.628;2023-05-08T04:12:35;95660.94;;;12.01;100.00
72409;BME280;60402;48.082;11.628;2023-05-08T04:15:28;95668.41;;;12.08;100.00
72409;BME280;60402;48.082;11.628;2023-05-08T04:18:16;95665.09;;;11.97;100.00
72409;BME280;60402;48.082;11.628;2023-05-08T04:21:08;95676.72;;;12.15;100.00
72409;BME280;60402;48.082;11.628;2023-05-08T04:23:56;95664.75;;;11.95;100.00
72409;BME280;60402;48.082;11.628;2023-05-08T04:26:43;95669.88;;;12.13;100.00
72409;BME280;60402;48.082;11.628;2023-05-08T04:29:31;95671.94;;;12.12;100.00
72409;BME280;60402;48.082;11.628;2023-05-08T04:32:17;95678.72;;;12.02;100.00
72409;BME280;60402;48.082;11.628;2023-05-08T04:35:03;95656.94;;;11.70;100.00
72409;BME280;60402;48.082;11.628;2023-05-08T04:37:49;95690.22;;;11.82;100.00
72409;BME280;60402;48.082;11.628;2023-05-08T04:40:34;95680.09;;;11.81;100.00
72409;BME280;60402;48.082;11.628;2023-05-08T04:43:20;95676.56;;;11.77;100.00
72409;BME280;60402;48.082;11.628;2023-05-08T04:46:06;95678.78;;;11.86;100.00
72409;BME280;60402;48.082;11.628;2023-05-08T04:48:52;95677.56;;;11.70;100.00
72409;BME280;60402;48.082;11.628;2023-05-08T04:51:38;95681.97;;;11.88;100.00
72409;BME280;60402;48.082;11.628;2023-05-08T04:54:24;95686.94;;;11.84;100.00
72409;BME280;60402;48.082;11.628;2023-05-08T04:57:09;95687.94;;;11.90;100.00
72409;BME280;60402;48.082;11.628;2023-05-08T04:59:55;95706.09;;;11.92;100.00
72409;BME280;60402;48.082;11.628;2023-05-08T05:02:41;95713.09;;;11.88;100.00
72409;BME280;60402;48.082;11.628;2023-05-08T05:05:27;95710.03;;;11.82;100.00
72409;BME280;60402;48.082;11.628;2023-05-08T05:08:12;95714.50;;;11.80;100.00
72409;BME280;60402;48.082;11.628;2023-05-08T05:10:58;95697.38;;;11.70;100.00
72409;BME280;60402;48.082;11.628;2023-05-08T05:13:44;95717.69;;;11.82;100.00
72409;BME280;60402;48.082;11.628;2023-05-08T05:16:29;95699.22;;;11.77;100.00
72409;BME280;60402;48.082;11.628;2023-05-08T05:19:15;95702.94;;;11.90;100.00
72409;BME280;60402;48.082;11.628;2023-05-08T05:22:00;95701.00;;;11.87;100.00
72409;BME280;60402;48.082;11.628;2023-05-08T05:24:46;95725.69;;;11.99;100.00
72409;BME280;60402;48.082;11.628;2023-05-08T05:27:35;95726.25;;;11.94;100.00
72409;BME280;60402;48.082;11.628;2023-05-08T05:30:23;95711.69;;;11.80;100.00
72409;BME280;60402;48.082;11.628;2023-05-08T05:33:09;95715.69;;;11.82;100.00
72409;BME280;60402;48.082;11.628;2023-05-08T05:35:55;95712.41;;;11.84;100.00
72409;BME280;60402;48.082;11.628;2023-05-08T05:38:41;95720.25;;;11.92;100.00
72409;BME280;60402;48.082;11.628;2023-05-08T05:41:27;95724.47;;;12.00;100.00
72409;BME280;60402;48.082;11.628;2023-05-08T05:44:12;95740.88;;;11.93;100.00
72409;BME280;60402;48.082;11.628;2023-05-08T05:46:58;95719.22;;;11.86;100.00
72409;BME280;60402;48.082;11.628;2023-05-08T05:49:43;95717.97;;;11.87;100.00
72409;BME280;60402;48.082;11.628;2023-05-08T05:52:31;95739.19;;;11.79;100.00
72409;BME280;60402;48.082;11.628;2023-05-08T05:55:17;95739.09;;;11.54;100.00
72409;BME280;60402;48.082;11.628;2023-05-08T05:58:03;95743.66;;;11.47;100.00
72409;BME280;60402;48.082;11.628;2023-05-08T06:00:49;95743.25;;;11.33;100.00
72409;BME280;60402;48.082;11.628;2023-05-08T06:03:34;95748.03;;;11.36;100.00
72409;BME280;60402;48.082;11.628;2023-05-08T06:06:20;95741.38;;;11.42;100.00
72409;BME280;60402;48.082;11.628;2023-05-08T06:09:06;95742.91;;;11.31;100.00
72409;BME280;60402;48.082;11.628;2023-05-08T06:11:52;95737.16;;;11.34;100.00
72409;BME280;60402;48.082;11.628;2023-05-08T06:14:37;95743.72;;;11.76;100.00
72409;BME280;60402;48.082;11.628;2023-05-08T06:17:23;95737.00;;;11.87;100.00
72409;BME280;60402;48.082;11.628;2023-05-08T06:20:09;95729.63;;;11.89;100.00
72409;BME280;60402;48.082;11.628;2023-05-08T06:22:54;95751.75;;;11.94;100.00
72409;BME280;60402;48.082;11.628;2023-05-08T06:25:40;95738.78;;;12.10;100.00
72409;BME280;60402;48.082;11.628;2023-05-08T06:28:26;95735.44;;;11.98;100.00
72409;BME280;60402;48.082;11.628;2023-05-08T06:31:11;95741.75;;;11.90;100.00
72409;BME280;60402;48.082;11.628;2023-05-08T06:33:57;95754.63;;;12.07;100.00
72409;BME280;60402;48.082;11.628;2023-05-08T06:36:43;95744.03;;;11.95;100.00
72409;BME280;60402;48.082;11.628;2023-05-08T06:39:28;95752.53;;;11.95;100.00
72409;BME280;60402;48.082;11.628;2023-05-08T06:42:14;95760.66;;;12.09;100.00
72409;BME280;60402;48.082;11.628;2023-05-08T06:44:59;95745.66;;;11.96;100.00
72409;BME280;60402;48.082;11.628;2023-05-08T06:47:45;95740.97;;;11.89;100.00
72409;BME280;60402;48.082;11.628;2023-05-08T06:50:31;95760.59;;;11.96;100.00
72409;BME280;60402;48.082;11.628;2023-05-08T06:53:17;95750.81;;;11.68;100.00
72409;BME280;60402;48.082;11.628;2023-05-08T06:56:03;95748.38;;;11.38;100.00
72409;BME280;60402;48.082;11.628;2023-05-08T06:58:48;95764.56;;;11.54;100.00
72409;BME280;60402;48.082;11.628;2023-05-08T07:01:34;95782.91;;;11.78;100.00
72409;BME280;60402;48.082;11.628;2023-05-08T07:04:21;95766.06;;;11.58;100.00
72409;BME280;60402;48.082;11.628;2023-05-08T07:07:07;95782.25;;;12.03;100.00
72409;BME280;60402;48.082;11.628;2023-05-08T07:09:53;95761.97;;;11.59;100.00
72409;BME280;60402;48.082;11.628;2023-05-08T07:12:38;95766.66;;;11.66;100.00
72409;BME280;60402;48.082;11.628;2023-05-08T07:15:25;95751.13;;;11.58;100.00
72409;BME280;60402;48.082;11.628;2023-05-08T07:18:11;95751.19;;;11.99;100.00
72409;BME280;60402;48.082;11.628;2023-05-08T07:20:56;95767.59;;;12.21;100.00
72409;BME280;60402;48.082;11.628;2023-05-08T07:23:42;95769.47;;;12.40;100.00
72409;BME280;60402;48.082;11.628;2023-05-08T07:26:27;95776.47;;;11.77;100.00
72409;BME280;60402;48.082;11.628;2023-05-08T07:29:13;95784.84;;;11.97;100.00
72409;BME280;60402;48.082;11.628;2023-05-08T07:31:59;95763.88;;;12.37;100.00
72409;BME280;60402;48.082;11.628;2023-05-08T07:34:44;95774.91;;;12.35;100.00
72409;BME280;60402;48.082;11.628;2023-05-08T07:37:31;95779.41;;;12.32;100.00
72409;BME280;60402;48.082;11.628;2023-05-08T07:40:17;95779.44;;;12.45;100.00
72409;BME280;60402;48.082;11.628;2023-05-08T07:43:03;95792.03;;;12.44;100.00
72409;BME280;60402;48.082;11.628;2023-05-08T07:45:49;95774.19;;;12.72;100.00
72409;BME280;60402;48.082;11.628;2023-05-08T07:48:34;95779.63;;;12.79;100.00
72409;BME280;60402;48.082;11.628;2023-05-08T07:51:20;95802.31;;;12.92;100.00
72409;BME280;60402;48.082;11.628;2023-05-08T07:54:06;95784.31;;;12.99;100.00
72409;BME280;60402;48.082;11.628;2023-05-08T07:56:51;95791.09;;;12.76;99.53
72409;BME280;60402;48.082;11.628;2023-05-08T07:59:37;95789.13;;;12.60;100.00
72409;BME280;60402;48.082;11.628;2023-05-08T08:02:23;95783.50;;;12.31;100.00
72409;BME280;60402;48.082;11.628;2023-05-08T08:05:08;95771.69;;;12.33;100.00
72409;BME280;60402;48.082;11.628;2023-05-08T08:07:54;95776.88;;;12.63;100.00
72409;BME280;60402;48.082;11.628;2023-05-08T08:10:40;95773.63;;;12.77;100.00
72409;BME280;60402;48.082;11.628;2023-05-08T08:13:26;95768.88;;;13.25;97.57
72409;BME280;60402;48.082;11.628;2023-05-08T08:16:11;95791.00;;;13.18;97.60
72409;BME280;60402;48.082;11.628;2023-05-08T08:18:57;95792.91;;;13.21;98.68
72409;BME280;60402;48.082;11.628;2023-05-08T08:21:44;95781.38;;;13.28;99.36
72409;BME280;60402;48.082;11.628;2023-05-08T08:24:30;95791.28;;;13.84;94.52
72409;BME280;60402;48.082;11.628;2023-05-08T08:27:16;95781.59;;;13.46;97.26
72409;BME280;60402;48.082;11.628;2023-05-08T08:30:02;95781.03;;;13.39;96.73
72409;BME280;60402;48.082;11.628;2023-05-08T08:32:48;95778.75;;;13.94;96.64
72409;BME280;60402;48.082;11.628;2023-05-08T08:35:33;95786.94;;;13.92;94.44
72409;BME280;60402;48.082;11.628;2023-05-08T08:38:19;95775.19;;;14.02;96.03
72409;BME280;60402;48.082;11.628;2023-05-08T08:41:05;95798.53;;;14.54;92.02
72409;BME280;60402;48.082;11.628;2023-05-08T08:43:50;95777.19;;;14.49;92.87
72409;BME280;60402;48.082;11.628;2023-05-08T08:46:39;95793.28;;;14.30;93.16
72409;BME280;60402;48.082;11.628;2023-05-08T08:49:30;95784.75;;;14.74;91.01
72409;BME280;60402;48.082;11.628;2023-05-08T08:52:30;95791.06;;;14.13;93.68
72409;BME280;60402;48.082;11.628;2023-05-08T08:55:19;95767.34;;;14.72;91.92
72409;BME280;60402;48.082;11.628;2023-05-08T08:58:16;95780.31;;;15.85;88.71
72409;BME280;60402;48.082;11.628;2023-05-08T09:01:04;95794.28;;;15.52;86.28
72409;BME280;60402;48.082;11.628;2023-05-08T09:03:51;95787.47;;;16.08;85.89
72409;BME280;60402;48.082;11.628;2023-05-08T09:06:37;95778.78;;;16.30;84.38
72409;BME280;60402;48.082;11.628;2023-05-08T09:09:23;95792.69;;;16.92;81.62
72409;BME280;60402;48.082;11.628;2023-05-08T09:12:09;95775.66;;;17.07;77.23
72409;BME280;60402;48.082;11.628;2023-05-08T09:14:56;95772.53;;;16.96;78.03
72409;BME280;60402;48.082;11.628;2023-05-08T09:17:42;95773.78;;;17.04;77.79
72409;BME280;60402;48.082;11.628;2023-05-08T09:20:28;95776.72;;;17.28;73.88
72409;BME280;60402;48.082;11.628;2023-05-08T09:23:14;95769.53;;;16.90;77.13
72409;BME280;60402;48.082;11.628;2023-05-08T09:26:01;95782.78;;;17.54;74.99
72409;BME280;60402;48.082;11.628;2023-05-08T09:28:47;95774.00;;;16.73;74.75
72409;BME280;60402;48.082;11.628;2023-05-08T09:31:37;95786.25;;;17.58;75.05
72409;BME280;60402;48.082;11.628;2023-05-08T09:34:30;95781.53;;;17.88;73.63
72409;BME280;60402;48.082;11.628;2023-05-08T09:37:17;95775.69;;;18.30;70.13
72409;BME280;60402;48.082;11.628;2023-05-08T09:43:11;95783.94;;;17.80;73.27
72409;BME280;60402;48.082;11.628;2023-05-08T09:49:03;95768.09;;;18.42;69.67
72409;BME280;60402;48.082;11.628;2023-05-08T09:51:52;95781.13;;;18.43;69.57
72409;BME280;60402;48.082;11.628;2023-05-08T09:54:38;95770.84;;;18.36;70.13
72409;BME280;60402;48.082;11.628;2023-05-08T09:57:25;95778.22;;;18.04;70.42
72409;BME280;60402;48.082;11.628;2023-05-08T10:00:13;95780.66;;;17.63;73.40
72409;BME280;60402;48.082;11.628;2023-05-08T10:03:01;95780.25;;;17.56;73.49
72409;BME280;60402;48.082;11.628;2023-05-08T10:05:46;95791.44;;;18.02;72.21
72409;BME280;60402;48.082;11.628;2023-05-08T10:08:32;95789.63;;;18.13;72.41
72409;BME280;60402;48.082;11.628;2023-05-08T10:11:18;95790.53;;;17.96;73.80
72409;BME280;60402;48.082;11.628;2023-05-08T10:14:04;95782.38;;;17.79;72.09
72409;BME280;60402;48.082;11.628;2023-05-08T10:16:51;95786.25;;;17.25;74.94
72409;BME280;60402;48.082;11.628;2023-05-08T10:19:39;95787.31;;;17.70;74.17
72409;BME280;60402;48.082;11.628;2023-05-08T10:22:31;95780.22;;;17.23;74.33
72409;BME280;60402;48.082;11.628;2023-05-08T10:25:19;95783.50;;;17.30;75.40
72409;BME280;60402;48.082;11.628;2023-05-08T10:28:36;95791.31;;;17.21;76.12
72409;BME280;60402;48.082;11.628;2023-05-08T10:31:29;95778.25;;;16.68;75.90
72409;BME280;60402;48.082;11.628;2023-05-08T10:34:18;95777.75;;;17.40;75.78
72409;BME280;60402;48.082;11.628;2023-05-08T10:37:05;95776.72;;;17.28;75.87
72409;BME280;60402;48.082;11.628;2023-05-08T10:39:54;95775.22;;;16.99;78.84
72409;BME280;60402;48.082;11.628;2023-05-08T10:42:42;95762.44;;;16.49;78.65
72409;BME280;60402;48.082;11.628;2023-05-08T10:45:28;95776.06;;;16.72;78.44
72409;BME280;60402;48.082;11.628;2023-05-08T10:48:32;95775.66;;;17.07;77.49
72409;BME280;60402;48.082;11.628;2023-05-08T10:51:34;95768.31;;;17.24;76.79
72409;BME280;60402;48.082;11.628;2023-05-08T10:54:37;95759.78;;;17.48;74.00
72409;BME280;60402;48.082;11.628;2023-05-08T10:57:23;95769.06;;;16.82;77.79
72409;BME280;60402;48.082;11.628;2023-05-08T11:00:09;95756.94;;;17.15;75.69
72409;BME280;60402;48.082;11.628;2023-05-08T11:03:04;95763.44;;;17.06;75.88
72409;BME280;60402;48.082;11.628;2023-05-08T11:05:51;95763.38;;;16.73;77.14
72409;BME280;60402;48.082;11.628;2023-05-08T11:08:51;95766.13;;;17.19;74.83
72409;BME280;60402;48.082;11.628;2023-05-08T11:11:39;95754.56;;;17.14;75.57
72409;BME280;60402;48.082;11.628;2023-05-08T11:14:26;95764.19;;;17.25;74.08
72409;BME280;60402;48.082;11.628;2023-05-08T11:17:12;95767.13;;;17.40;73.80
72409;BME280;60402;48.082;11.628;2023-05-08T11:20:02;95772.75;;;17.25;74.55
72409;BME280;60402;48.082;11.628;2023-05-08T11:22:48;95763.06;;;16.62;77.39
72409;BME280;60402;48.082;11.628;2023-05-08T11:25:41;95764.28;;;17.40;75.09
72409;BME280;60402;48.082;11.628;2023-05-08T11:28:31;95766.31;;;17.06;75.12
72409;BME280;60402;48.082;11.628;2023-05-08T11:31:17;95760.50;;;16.64;77.38
72409;BME280;60402;48.082;11.628;2023-05-08T11:34:03;95752.09;;;16.79;77.12
72409;BME280;60402;48.082;11.628;2023-05-08T11:37:01;95744.78;;;16.96;75.25
72409;BME280;60402;48.082;11.628;2023-05-08T11:39:47;95752.44;;;16.81;76.55
72409;BME280;60402;48.082;11.628;2023-05-08T11:42:33;95757.22;;;16.56;78.05
72409;BME280;60402;48.082;11.628;2023-05-08T11:45:19;95762.72;;;16.78;78.11
72409;BME280;60402;48.082;11.628;2023-05-08T11:48:07;95752.59;;;16.77;77.11
72409;BME280;60402;48.082;11.628;2023-05-08T11:50:58;95754.03;;;16.73;76.60
72409;BME280;60402;48.082;11.628;2023-05-08T11:53:44;95761.66;;;16.76;77.55
72409;BME280;60402;48.082;11.628;2023-05-08T11:56:30;95761.94;;;16.69;78.31
72409;BME280;60402;48.082;11.628;2023-05-08T11:59:16;95757.19;;;16.75;77.35
72409;BME280;60402;48.082;11.628;2023-05-08T12:02:02;95760.53;;;16.55;76.00
72409;BME280;60402;48.082;11.628;2023-05-08T12:04:47;95755.56;;;16.92;75.81
72409;BME280;60402;48.082;11.628;2023-05-08T12:07:46;95768.38;;;17.06;74.23
72409;BME280;60402;48.082;11.628;2023-05-08T12:10:32;95768.94;;;16.49;76.17
72409;BME280;60402;48.082;11.628;2023-05-08T12:13:19;95759.31;;;17.07;74.75
72409;BME280;60402;48.082;11.628;2023-05-08T12:16:05;95754.47;;;16.99;73.68
72409;BME280;60402;48.082;11.628;2023-05-08T12:18:52;95754.78;;;16.92;75.46
72409;BME280;60402;48.082;11.628;2023-05-08T12:21:44;95769.88;;;17.25;76.01
72409;BME280;60402;48.082;11.628;2023-05-08T12:24:29;95754.47;;;16.99;74.37
72409;BME280;60402;48.082;11.628;2023-05-08T12:27:15;95774.13;;;16.69;75.94
72409;BME280;60402;48.082;11.628;2023-05-08T12:30:05;95773.03;;;16.94;76.39
72409;BME280;60402;48.082;11.628;2023-05-08T12:32:52;95767.91;;;16.98;76.76
72409;BME280;60402;48.082;11.628;2023-05-08T12:35:38;95766.84;;;16.86;75.20
72409;BME280;60402;48.082;11.628;2023-05-08T12:38:27;95777.91;;;17.45;76.10
72409;BME280;60402;48.082;11.628;2023-05-08T12:41:13;95756.97;;;16.97;74.53
72409;BME280;60402;48.082;11.628;2023-05-08T12:43:59;95760.38;;;16.77;76.05
72409;BME280;60402;48.082;11.628;2023-05-08T12:46:46;95768.41;;;17.39;73.51
72409;BME280;60402;48.082;11.628;2023-05-08T12:49:31;95756.41;;;17.26;73.25
72409;BME280;60402;48.082;11.628;2023-05-08T12:52:17;95766.78;;;17.05;73.97
72409;BME280;60402;48.082;11.628;2023-05-08T12:55:04;95763.31;;;17.01;74.48
72409;BME280;60402;48.082;11.628;2023-05-08T12:57:57;95762.78;;;17.11;72.25
72409;BME280;60402;48.082;11.628;2023-05-08T13:00:48;95769.06;;;17.34;71.95
72409;BME280;60402;48.082;11.628;2023-05-08T13:03:37;95768.16;;;17.61;72.11
72409;BME280;60402;48.082;11.628;2023-05-08T13:06:23;95756.34;;;16.93;74.75
72409;BME280;60402;48.082;11.628;2023-05-08T13:09:09;95759.88;;;17.30;73.52
72409;BME280;60402;48.082;11.628;2023-05-08T13:12:02;95753.53;;;17.26;72.11
72409;BME280;60402;48.082;11.628;2023-05-08T13:14:47;95749.50;;;17.08;74.15
72409;BME280;60402;48.082;11.628;2023-05-08T13:17:33;95758.47;;;17.25;73.83
72409;BME280;60402;48.082;11.628;2023-05-08T13:20:19;95732.94;;;17.22;74.30
72409;BME280;60402;48.082;11.628;2023-05-08T13:23:05;95759.84;;;16.97;74.45
72409;BME280;60402;48.082;11.628;2023-05-08T13:25:51;95757.63;;;16.92;74.64
72409;BME280;60402;48.082;11.628;2023-05-08T13:28:37;95738.78;;;16.94;74.00
72409;BME280;60402;48.082;11.628;2023-05-08T13:31:23;95755.31;;;16.72;75.37
72409;BME280;60402;48.082;11.628;2023-05-08T13:34:08;95745.63;;;16.78;75.45
72409;BME280;60402;48.082;11.628;2023-05-08T13:36:57;95742.41;;;16.95;75.78
72409;BME280;60402;48.082;11.628;2023-05-08T13:39:43;95747.75;;;17.02;76.17
72409;BME280;60402;48.082;11.628;2023-05-08T13:42:28;95748.78;;;16.71;76.94
72409;BME280;60402;48.082;11.628;2023-05-08T13:45:14;95739.56;;;16.95;75.34
72409;BME280;60402;48.082;11.628;2023-05-08T13:48:00;95740.22;;;16.71;76.24
72409;BME280;60402;48.082;11.628;2023-05-08T13:50:45;95741.16;;;16.86;76.28
72409;BME280;60402;48.082;11.628;2023-05-08T13:53:31;95743.16;;;17.04;75.59
72409;BME280;60402;48.082;11.628;2023-05-08T13:56:17;95723.50;;;16.97;75.06
72409;BME280;60402;48.082;11.628;2023-05-08T13:59:02;95737.91;;;17.03;75.42
72409;BME280;60402;48.082;11.628;2023-05-08T14:01:48;95731.63;;;16.99;75.54
72409;BME280;60402;48.082;11.628;2023-05-08T14:04:35;95735.97;;;16.76;75.93
72409;BME280;60402;48.082;11.628;2023-05-08T14:07:21;95743.38;;;16.92;75.44
72409;BME280;60402;48.082;11.628;2023-05-08T14:10:06;95738.81;;;16.76;76.42
72409;BME280;60402;48.082;11.628;2023-05-08T14:12:52;95736.13;;;16.45;77.90
72409;BME280;60402;48.082;11.628;2023-05-08T14:15:38;95724.84;;;16.59;76.53
72409;BME280;60402;48.082;11.628;2023-05-08T14:18:24;95750.41;;;16.72;76.63
72409;BME280;60402;48.082;11.628;2023-05-08T14:21:10;95738.16;;;16.90;76.18
72409;BME280;60402;48.082;11.628;2023-05-08T14:23:56;95728.50;;;16.78;76.08
72409;BME280;60402;48.082;11.628;2023-05-08T14:26:41;95731.34;;;16.60;75.82
72409;BME280;60402;48.082;11.628;2023-05-08T14:29:28;95753.72;;;16.61;75.74
72409;BME280;60402;48.082;11.628;2023-05-08T14:32:13;95732.19;;;16.42;74.99
72409;BME280;60402;48.082;11.628;2023-05-08T14:34:59;95733.13;;;16.48;75.63
72409;BME280;60402;48.082;11.628;2023-05-08T14:37:45;95753.88;;;16.40;74.89
72409;BME280;60402;48.082;11.628;2023-05-08T14:40:30;95741.53;;;16.52;74.95
72409;BME280;60402;48.082;11.628;2023-05-08T14:43:16;95740.28;;;16.25;76.36
72409;BME280;60402;48.082;11.628;2023-05-08T14:46:02;95742.81;;;16.05;77.26
72409;BME280;60402;48.082;11.628;2023-05-08T14:48:48;95737.13;;;15.96;77.14
72409;BME280;60402;48.082;11.628;2023-05-08T14:51:34;95735.69;;;16.00;76.16
72409;BME280;60402;48.082;11.628;2023-05-08T14:54:20;95720.66;;;15.91;76.86
72409;BME280;60402;48.082;11.628;2023-05-08T14:57:06;95733.16;;;16.02;76.65
72409;BME280;60402;48.082;11.628;2023-05-08T14:59:51;95731.56;;;15.83;77.10